sensor_id;sensor_type;location;lat;lon;timestamp;temperature;humidity
4245;DHT22;2136;48.502;9.194;2022-10-20T00:02:19;15.80;99.90
4245;DHT22;2136;48.502;9.194;2022-10-20T00:04:48;15.80;99.90
4245;DHT22;2136;48.502;9.194;2022-10-20T00:07:14;15.70;99.90
4245;DHT22;2136;48.502;9.194;2022-10-20T00:09:41;15.70;99.90
4245;DHT22;2136;48.502;9.194;2022-10-20T00:12:08;15.70;99.90
4245;DHT22;2136;48.502;9.194;2022-10-20T00:14:35;15.70;99.90
4245;DHT22;2136;48.502;9.194;2022-10-20T00:17:02;15.70;99.90
4245;DHT22;2136;48.502;9.194;2022-10-20T00:19:29;15.70;99.90
4245;DHT22;2136;48.502;9.194;2022-10-20T00:21:59;15.70;99.90
4245;DHT22;2136;48.502;9.194;2022-10-20T00:24:26;15.70;99.90
4245;DHT22;2136;48.502;9.194;2022-10-20T00:26:52;15.70;99.90
4245;DHT22;2136;48.502;9.194;2022-10-20T00:29:19;15.70;99.90
4245;DHT22;2136;48.502;9.194;2022-10-20T00:31:46;15.70;99.90
4245;DHT22;2136;48.502;9.194;2022-10-20T00:34:13;15.70;99.90
4245;DHT22;2136;48.502;9.194;2022-10-20T00:36:40;15.60;99.90
4245;DHT22;2136;48.502;9.194;2022-10-20T00:39:08;15.50;99.90
4245;DHT22;2136;48.502;9.194;2022-10-20T00:41:35;15.60;99.90
4245;DHT22;2136;48.502;9.194;2022-10-20T00:46:44;15.50;99.90
4245;DHT22;2136;48.502;9.194;2022-10-20T00:49:13;15.50;99.90
4245;DHT22;2136;48.502;9.194;2022-10-20T00:51:41;15.50;99.90
4245;DHT22;2136;48.502;9.194;2022-10-20T00:54:14;15.60;99.90
4245;DHT22;2136;48.502;9.194;2022-10-20T00:56:43;15.50;99.90
4245;DHT22;2136;48.502;9.194;2022-10-20T00:59:13;15.50;99.90
4245;DHT22;2136;48.502;9.194;2022-10-20T01:01:42;15.50;99.90
4245;DHT22;2136;48.502;9.194;2022-10-20T01:04:10;15.40;99.90
4245;DHT22;2136;48.502;9.194;2022-10-20T01:06:37;15.40;99.90
4245;DHT22;2136;48.502;9.194;2022-10-20T01:09:04;15.40;99.90
4245;DHT22;2136;48.502;9.194;2022-10-20T01:11:37;15.40;99.90
4245;DHT22;2136;48.502;9.194;2022-10-20T01:14:14;15.40;99.90
4245;DHT22;2136;48.502;9.194;2022-10-20T01:16:52;15.40;99.90
4245;DHT22;2136;48.502;9.194;2022-10-20T01:19:49;15.40;99.90
4245;DHT22;2136;48.502;9.194;2022-10-20T01:22:34;15.40;99.90
4245;DHT22;2136;48.502;9.194;2022-10-20T01:25:15;15.40;99.90
4245;DHT22;2136;48.502;9.194;2022-10-20T01:27:45;15.50;99.90
4245;DHT22;2136;48.502;9.194;2022-10-20T01:30:13;15.40;99.90
4245;DHT22;2136;48.502;9.194;2022-10-20T01:32:53;15.40;99.90
4245;DHT22;2136;48.502;9.194;2022-10-20T01:35:27;15.40;99.90
4245;DHT22;2136;48.502;9.194;2022-10-20T01:38:04;15.40;99.90
4245;DHT22;2136;48.502;9.194;2022-10-20T01:40:36;15.40;99.90
4245;DHT22;2136;48.502;9.194;2022-10-20T01:43:10;15.50;99.90
4245;DHT22;2136;48.502;9.194;2022-10-20T01:45:42;15.40;99.90
4245;DHT22;2136;48.502;9.194;2022-10-20T01:48:11;15.50;99.90
4245;DHT22;2136;48.502;9.194;2022-10-20T01:50:39;15.40;99.90
4245;DHT22;2136;48.502;9.194;2022-10-20T01:53:07;15.40;99.90
4245;DHT22;2136;48.502;9.194;2022-10-20T01:55:35;15.40;99.90
4245;DHT22;2136;48.502;9.194;2022-10-20T01:58:15;15.50;99.90
4245;DHT22;2136;48.502;9.194;2022-10-20T02:00:47;15.50;99.90
4245;DHT22;2136;48.502;9.194;2022-10-20T02:03:29;15.50;99.90
4245;DHT22;2136;48.502;9.194;2022-10-20T02:06:08;15.40;99.90
4245;DHT22;2136;48.502;9.194;2022-10-20T02:08:42;15.40;99.90
4245;DHT22;2136;48.502;9.194;2022-10-20T02:11:16;15.40;99.90
4245;DHT22;2136;48.502;9.194;2022-10-20T02:13:48;15.50;99.90
4245;DHT22;2136;48.502;9.194;2022-10-20T02:16:23;15.40;99.90
4245;DHT22;2136;48.502;9.194;2022-10-20T02:18:52;15.50;99.90
4245;DHT22;2136;48.502;9.194;2022-10-20T02:21:20;15.40;99.90
4245;DHT22;2136;48.502;9.194;2022-10-20T02:23:48;15.40;99.90
4245;DHT22;2136;48.502;9.194;2022-10-20T02:26:18;15.30;99.90
4245;DHT22;2136;48.502;9.194;2022-10-20T02:28:48;15.40;99.90
4245;DHT22;2136;48.502;9.194;2022-10-20T02:31:18;15.30;99.90
4245;DHT22;2136;48.502;9.194;2022-10-20T02:33:46;15.30;99.90
4245;DHT22;2136;48.502;9.194;2022-10-20T02:36:17;15.30;99.90
4245;DHT22;2136;48.502;9.194;2022-10-20T02:38:44;15.40;99.90
4245;DHT22;2136;48.502;9.194;2022-10-20T02:41:11;15.30;99.90
4245;DHT22;2136;48.502;9.194;2022-10-20T02:43:38;15.20;99.90
4245;DHT22;2136;48.502;9.194;2022-10-20T02:46:06;15.10;99.90
4245;DHT22;2136;48.502;9.194;2022-10-20T02:48:33;15.20;99.90
4245;DHT22;2136;48.502;9.194;2022-10-20T02:51:02;15.10;99.90
4245;DHT22;2136;48.502;9.194;2022-10-20T02:53:30;15.10;99.90
4245;DHT22;2136;48.502;9.194;2022-10-20T02:55:56;15.10;99.90
4245;DHT22;2136;48.502;9.194;2022-10-20T02:58:24;15.10;99.90
4245;DHT22;2136;48.502;9.194;2022-10-20T03:00:51;15.10;99.90
4245;DHT22;2136;48.502;9.194;2022-10-20T03:03:19;15.10;99.90
4245;DHT22;2136;48.502;9.194;2022-10-20T03:05:46;15.10;99.90
4245;DHT22;2136;48.502;9.194;2022-10-20T03:08:13;15.10;99.90
4245;DHT22;2136;48.502;9.194;2022-10-20T03:10:40;15.00;99.90
4245;DHT22;2136;48.502;9.194;2022-10-20T03:13:08;15.00;99.90
4245;DHT22;2136;48.502;9.194;2022-10-20T03:15:35;15.10;99.90
4245;DHT22;2136;48.502;9.194;2022-10-20T03:18:02;15.10;99.90
4245;DHT22;2136;48.502;9.194;2022-10-20T03:20:31;15.00;99.90
4245;DHT22;2136;48.502;9.194;2022-10-20T03:22:58;15.00;99.90
4245;DHT22;2136;48.502;9.194;2022-10-20T03:25:25;15.00;99.90
4245;DHT22;2136;48.502;9.194;2022-10-20T03:27:52;15.00;99.90
4245;DHT22;2136;48.502;9.194;2022-10-20T03:30:18;15.00;99.90
4245;DHT22;2136;48.502;9.194;2022-10-20T03:32:45;15.10;99.90
4245;DHT22;2136;48.502;9.194;2022-10-20T03:35:12;15.00;99.90
4245;DHT22;2136;48.502;9.194;2022-10-20T03:37:40;15.10;99.90
4245;DHT22;2136;48.502;9.194;2022-10-20T03:40:08;15.10;99.90
4245;DHT22;2136;48.502;9.194;2022-10-20T03:42:35;15.10;99.90
4245;DHT22;2136;48.502;9.194;2022-10-20T03:45:02;15.00;99.70
4245;DHT22;2136;48.502;9.194;2022-10-20T03:47:29;14.90;97.60
4245;DHT22;2136;48.502;9.194;2022-10-20T03:49:55;14.80;96.10
4245;DHT22;2136;48.502;9.194;2022-10-20T03:52:22;14.70;96.50
4245;DHT22;2136;48.502;9.194;2022-10-20T03:54:50;14.60;98.30
4245;DHT22;2136;48.502;9.194;2022-10-20T03:57:18;14.70;99.60
4245;DHT22;2136;48.502;9.194;2022-10-20T03:59:45;14.50;99.90
4245;DHT22;2136;48.502;9.194;2022-10-20T04:02:22;14.50;99.90
4245;DHT22;2136;48.502;9.194;2022-10-20T04:04:51;14.50;99.90
4245;DHT22;2136;48.502;9.194;2022-10-20T04:07:18;14.50;99.90
4245;DHT22;2136;48.502;9.194;2022-10-20T04:09:45;14.60;99.90
4245;DHT22;2136;48.502;9.194;2022-10-20T04:12:13;14.60;99.90
4245;DHT22;2136;48.502;9.194;2022-10-20T04:14:40;14.60;99.90
4245;DHT22;2136;48.502;9.194;2022-10-20T04:17:07;14.60;99.90
4245;DHT22;2136;48.502;9.194;2022-10-20T04:19:33;14.70;99.90
4245;DHT22;2136;48.502;9.194;2022-10-20T04:22:00;14.60;99.90
4245;DHT22;2136;48.502;9.194;2022-10-20T04:24:27;14.70;99.90
4245;DHT22;2136;48.502;9.194;2022-10-20T04:26:54;14.50;98.90
4245;DHT22;2136;48.502;9.194;2022-10-20T04:29:22;14.50;98.70
4245;DHT22;2136;48.502;9.194;2022-10-20T04:31:49;14.40;99.20
4245;DHT22;2136;48.502;9.194;2022-10-20T04:34:16;14.40;99.30
4245;DHT22;2136;48.502;9.194;2022-10-20T04:36:43;14.30;99.50
4245;DHT22;2136;48.502;9.194;2022-10-20T04:39:10;14.40;99.90
4245;DHT22;2136;48.502;9.194;2022-10-20T04:41:37;14.20;99.90
4245;DHT22;2136;48.502;9.194;2022-10-20T04:44:04;14.20;99.90
4245;DHT22;2136;48.502;9.194;2022-10-20T04:46:32;14.30;99.90
4245;DHT22;2136;48.502;9.194;2022-10-20T04:48:59;14.30;99.90
4245;DHT22;2136;48.502;9.194;2022-10-20T04:51:26;14.30;99.90
4245;DHT22;2136;48.502;9.194;2022-10-20T04:53:53;14.20;99.60
4245;DHT22;2136;48.502;9.194;2022-10-20T04:56:21;14.10;98.20
4245;DHT22;2136;48.502;9.194;2022-10-20T04:58:48;14.00;97.50
4245;DHT22;2136;48.502;9.194;2022-10-20T05:01:16;14.00;97.00
4245;DHT22;2136;48.502;9.194;2022-10-20T05:03:44;13.90;97.20
4245;DHT22;2136;48.502;9.194;2022-10-20T05:06:12;13.80;98.30
4245;DHT22;2136;48.502;9.194;2022-10-20T05:08:40;13.80;99.60
4245;DHT22;2136;48.502;9.194;2022-10-20T05:11:07;13.70;99.90
4245;DHT22;2136;48.502;9.194;2022-10-20T05:13:35;13.80;99.90
4245;DHT22;2136;48.502;9.194;2022-10-20T05:16:03;13.70;99.90
4245;DHT22;2136;48.502;9.194;2022-10-20T05:18:30;13.70;99.90
4245;DHT22;2136;48.502;9.194;2022-10-20T05:20:58;13.70;99.90
4245;DHT22;2136;48.502;9.194;2022-10-20T05:23:25;13.70;99.90
4245;DHT22;2136;48.502;9.194;2022-10-20T05:25:52;13.70;99.90
4245;DHT22;2136;48.502;9.194;2022-10-20T05:28:19;13.70;99.90
4245;DHT22;2136;48.502;9.194;2022-10-20T05:30:46;13.80;99.90
4245;DHT22;2136;48.502;9.194;2022-10-20T05:33:12;13.90;99.90
4245;DHT22;2136;48.502;9.194;2022-10-20T05:35:39;14.00;99.90
4245;DHT22;2136;48.502;9.194;2022-10-20T05:38:07;14.10;99.90
4245;DHT22;2136;48.502;9.194;2022-10-20T05:40:34;14.10;99.90
4245;DHT22;2136;48.502;9.194;2022-10-20T05:43:01;14.20;99.90
4245;DHT22;2136;48.502;9.194;2022-10-20T05:45:28;14.30;99.90
4245;DHT22;2136;48.502;9.194;2022-10-20T05:47:55;14.30;99.90
4245;DHT22;2136;48.502;9.194;2022-10-20T05:50:21;14.40;99.90
4245;DHT22;2136;48.502;9.194;2022-10-20T05:52:48;14.50;99.90
4245;DHT22;2136;48.502;9.194;2022-10-20T05:55:17;14.50;99.90
4245;DHT22;2136;48.502;9.194;2022-10-20T05:57:44;14.70;99.90
4245;DHT22;2136;48.502;9.194;2022-10-20T06:00:11;14.60;99.90
4245;DHT22;2136;48.502;9.194;2022-10-20T06:02:40;14.60;99.90
4245;DHT22;2136;48.502;9.194;2022-10-20T06:05:07;14.60;99.90
4245;DHT22;2136;48.502;9.194;2022-10-20T06:07:34;14.70;99.90
4245;DHT22;2136;48.502;9.194;2022-10-20T06:10:01;14.80;99.90
4245;DHT22;2136;48.502;9.194;2022-10-20T06:12:29;14.70;99.90
4245;DHT22;2136;48.502;9.194;2022-10-20T06:14:56;14.90;99.90
4245;DHT22;2136;48.502;9.194;2022-10-20T06:17:22;14.80;99.90
4245;DHT22;2136;48.502;9.194;2022-10-20T06:19:50;14.90;99.90
4245;DHT22;2136;48.502;9.194;2022-10-20T06:22:17;15.00;99.90
4245;DHT22;2136;48.502;9.194;2022-10-20T06:24:44;14.90;99.90
4245;DHT22;2136;48.502;9.194;2022-10-20T06:27:10;15.00;99.90
4245;DHT22;2136;48.502;9.194;2022-10-20T06:29:39;15.00;99.90
4245;DHT22;2136;48.502;9.194;2022-10-20T06:32:05;15.00;99.90
4245;DHT22;2136;48.502;9.194;2022-10-20T06:34:32;15.10;99.90
4245;DHT22;2136;48.502;9.194;2022-10-20T06:36:59;15.10;99.90
4245;DHT22;2136;48.502;9.194;2022-10-20T06:39:26;15.20;99.90
4245;DHT22;2136;48.502;9.194;2022-10-20T06:41:54;15.20;99.90
4245;DHT22;2136;48.502;9.194;2022-10-20T06:44:22;15.30;99.90
4245;DHT22;2136;48.502;9.194;2022-10-20T06:46:50;15.30;99.90
4245;DHT22;2136;48.502;9.194;2022-10-20T06:49:18;15.40;99.90
4245;DHT22;2136;48.502;9.194;2022-10-20T06:51:46;15.30;97.60
4245;DHT22;2136;48.502;9.194;2022-10-20T06:54:13;15.30;95.10
4245;DHT22;2136;48.502;9.194;2022-10-20T06:56:39;15.10;92.80
4245;DHT22;2136;48.502;9.194;2022-10-20T06:59:06;14.90;91.50
4245;DHT22;2136;48.502;9.194;2022-10-20T07:01:34;14.80;91.40
4245;DHT22;2136;48.502;9.194;2022-10-20T07:04:05;14.70;91.80
4245;DHT22;2136;48.502;9.194;2022-10-20T07:06:34;14.60;92.00
4245;DHT22;2136;48.502;9.194;2022-10-20T07:09:03;14.50;92.10
4245;DHT22;2136;48.502;9.194;2022-10-20T07:11:33;14.50;92.60
4245;DHT22;2136;48.502;9.194;2022-10-20T07:14:01;14.50;93.20
4245;DHT22;2136;48.502;9.194;2022-10-20T07:16:30;14.50;93.70
4245;DHT22;2136;48.502;9.194;2022-10-20T07:18:57;14.50;94.30
4245;DHT22;2136;48.502;9.194;2022-10-20T07:21:27;14.50;94.10
4245;DHT22;2136;48.502;9.194;2022-10-20T07:23:55;14.40;93.80
4245;DHT22;2136;48.502;9.194;2022-10-20T07:26:25;14.40;94.30
4245;DHT22;2136;48.502;9.194;2022-10-20T07:28:54;14.40;95.30
4245;DHT22;2136;48.502;9.194;2022-10-20T07:31:24;14.50;95.90
4245;DHT22;2136;48.502;9.194;2022-10-20T07:33:51;14.60;96.60
4245;DHT22;2136;48.502;9.194;2022-10-20T07:36:20;14.70;97.10
4245;DHT22;2136;48.502;9.194;2022-10-20T07:38:50;14.80;97.90
4245;DHT22;2136;48.502;9.194;2022-10-20T07:41:17;14.90;98.50
4245;DHT22;2136;48.502;9.194;2022-10-20T07:43:44;15.00;97.80
4245;DHT22;2136;48.502;9.194;2022-10-20T07:46:11;15.10;97.50
4245;DHT22;2136;48.502;9.194;2022-10-20T07:48:39;15.30;97.60
4245;DHT22;2136;48.502;9.194;2022-10-20T07:51:13;15.50;97.90
4245;DHT22;2136;48.502;9.194;2022-10-20T07:53:40;15.70;96.80
4245;DHT22;2136;48.502;9.194;2022-10-20T07:56:09;15.90;95.60
4245;DHT22;2136;48.502;9.194;2022-10-20T07:58:36;16.00;93.50
4245;DHT22;2136;48.502;9.194;2022-10-20T08:01:03;16.10;92.70
4245;DHT22;2136;48.502;9.194;2022-10-20T08:03:30;16.20;92.50
4245;DHT22;2136;48.502;9.194;2022-10-20T08:05:57;16.40;92.40
4245;DHT22;2136;48.502;9.194;2022-10-20T08:08:24;16.60;92.90
4245;DHT22;2136;48.502;9.194;2022-10-20T08:10:51;16.90;92.00
4245;DHT22;2136;48.502;9.194;2022-10-20T08:13:19;17.20;92.00
4245;DHT22;2136;48.502;9.194;2022-10-20T08:15:46;17.70;91.30
4245;DHT22;2136;48.502;9.194;2022-10-20T08:18:13;18.10;90.10
4245;DHT22;2136;48.502;9.194;2022-10-20T08:20:40;18.60;85.60
4245;DHT22;2136;48.502;9.194;2022-10-20T08:23:07;19.00;83.20
4245;DHT22;2136;48.502;9.194;2022-10-20T08:25:34;19.30;79.00
4245;DHT22;2136;48.502;9.194;2022-10-20T08:28:01;19.70;76.20
4245;DHT22;2136;48.502;9.194;2022-10-20T08:30:29;20.00;73.40
4245;DHT22;2136;48.502;9.194;2022-10-20T08:32:56;20.20;71.90
4245;DHT22;2136;48.502;9.194;2022-10-20T08:35:23;20.40;70.50
4245;DHT22;2136;48.502;9.194;2022-10-20T08:37:50;20.80;69.30
4245;DHT22;2136;48.502;9.194;2022-10-20T08:40:20;21.40;68.20
4245;DHT22;2136;48.502;9.194;2022-10-20T08:42:48;22.20;66.10
4245;DHT22;2136;48.502;9.194;2022-10-20T08:45:18;23.00;62.50
4245;DHT22;2136;48.502;9.194;2022-10-20T08:47:48;23.90;59.70
4245;DHT22;2136;48.502;9.194;2022-10-20T08:50:17;24.70;58.10
4245;DHT22;2136;48.502;9.194;2022-10-20T08:52:49;25.60;56.30
4245;DHT22;2136;48.502;9.194;2022-10-20T08:55:21;26.30;53.60
4245;DHT22;2136;48.502;9.194;2022-10-20T08:57:50;26.80;52.40
4245;DHT22;2136;48.502;9.194;2022-10-20T09:00:19;26.80;51.10
4245;DHT22;2136;48.502;9.194;2022-10-20T09:02:49;26.70;50.60
4245;DHT22;2136;48.502;9.194;2022-10-20T09:05:20;26.40;50.80
4245;DHT22;2136;48.502;9.194;2022-10-20T09:07:48;26.50;51.30
4245;DHT22;2136;48.502;9.194;2022-10-20T09:10:24;26.50;51.30
4245;DHT22;2136;48.502;9.194;2022-10-20T09:12:53;26.40;51.60
4245;DHT22;2136;48.502;9.194;2022-10-20T09:15:21;26.00;50.80
4245;DHT22;2136;48.502;9.194;2022-10-20T09:17:54;25.80;51.30
4245;DHT22;2136;48.502;9.194;2022-10-20T09:20:24;25.80;51.00
4245;DHT22;2136;48.502;9.194;2022-10-20T09:22:52;25.70;51.50
4245;DHT22;2136;48.502;9.194;2022-10-20T09:25:21;25.70;51.30
4245;DHT22;2136;48.502;9.194;2022-10-20T09:27:50;25.70;51.80
4245;DHT22;2136;48.502;9.194;2022-10-20T09:30:19;25.90;52.00
4245;DHT22;2136;48.502;9.194;2022-10-20T09:32:47;25.90;51.70
4245;DHT22;2136;48.502;9.194;2022-10-20T09:35:22;25.80;51.60
4245;DHT22;2136;48.502;9.194;2022-10-20T09:37:55;25.40;51.80
4245;DHT22;2136;48.502;9.194;2022-10-20T09:40:24;25.10;52.20
4245;DHT22;2136;48.502;9.194;2022-10-20T09:42:53;24.70;52.90
4245;DHT22;2136;48.502;9.194;2022-10-20T09:45:22;24.40;52.80
4245;DHT22;2136;48.502;9.194;2022-10-20T09:47:55;23.90;52.80
4245;DHT22;2136;48.502;9.194;2022-10-20T09:50:28;23.50;54.00
4245;DHT22;2136;48.502;9.194;2022-10-20T09:52:56;23.00;54.90
4245;DHT22;2136;48.502;9.194;2022-10-20T09:55:26;22.70;55.50
4245;DHT22;2136;48.502;9.194;2022-10-20T09:57:54;22.40;56.30
4245;DHT22;2136;48.502;9.194;2022-10-20T10:00:24;22.10;57.00
4245;DHT22;2136;48.502;9.194;2022-10-20T10:03:12;21.90;57.20
4245;DHT22;2136;48.502;9.194;2022-10-20T10:05:50;21.70;58.00
4245;DHT22;2136;48.502;9.194;2022-10-20T10:08:18;21.80;58.70
4245;DHT22;2136;48.502;9.194;2022-10-20T10:10:57;22.00;59.20
4245;DHT22;2136;48.502;9.194;2022-10-20T10:13:26;22.30;59.60
4245;DHT22;2136;48.502;9.194;2022-10-20T10:16:04;22.40;59.50
4245;DHT22;2136;48.502;9.194;2022-10-20T10:18:33;22.50;59.70
4245;DHT22;2136;48.502;9.194;2022-10-20T10:21:04;22.60;59.40
4245;DHT22;2136;48.502;9.194;2022-10-20T10:23:33;22.70;59.40
4245;DHT22;2136;48.502;9.194;2022-10-20T10:26:01;23.00;59.20
4245;DHT22;2136;48.502;9.194;2022-10-20T10:28:32;23.30;58.70
4245;DHT22;2136;48.502;9.194;2022-10-20T10:31:18;23.80;57.90
4245;DHT22;2136;48.502;9.194;2022-10-20T10:33:47;24.00;56.60
4245;DHT22;2136;48.502;9.194;2022-10-20T10:36:27;24.20;56.40
4245;DHT22;2136;48.502;9.194;2022-10-20T10:38:54;24.20;55.70
4245;DHT22;2136;48.502;9.194;2022-10-20T10:41:33;24.00;55.80
4245;DHT22;2136;48.502;9.194;2022-10-20T10:44:05;23.80;56.00
4245;DHT22;2136;48.502;9.194;2022-10-20T10:46:38;23.50;56.00
4245;DHT22;2136;48.502;9.194;2022-10-20T10:49:25;23.10;56.50
4245;DHT22;2136;48.502;9.194;2022-10-20T10:52:02;22.80;57.50
4245;DHT22;2136;48.502;9.194;2022-10-20T10:54:46;22.50;58.30
4245;DHT22;2136;48.502;9.194;2022-10-20T10:57:23;22.20;58.80
4245;DHT22;2136;48.502;9.194;2022-10-20T10:59:51;21.90;60.20
4245;DHT22;2136;48.502;9.194;2022-10-20T11:02:45;21.70;60.60
4245;DHT22;2136;48.502;9.194;2022-10-20T11:05:45;21.50;61.60
4245;DHT22;2136;48.502;9.194;2022-10-20T11:08:27;21.30;62.70
4245;DHT22;2136;48.502;9.194;2022-10-20T11:11:04;21.20;63.80
4245;DHT22;2136;48.502;9.194;2022-10-20T11:13:39;21.00;65.20
4245;DHT22;2136;48.502;9.194;2022-10-20T11:16:16;21.00;65.10
4245;DHT22;2136;48.502;9.194;2022-10-20T11:19:06;21.00;65.30
4245;DHT22;2136;48.502;9.194;2022-10-20T11:21:41;21.10;66.10
4245;DHT22;2136;48.502;9.194;2022-10-20T11:24:26;21.30;66.00
4245;DHT22;2136;48.502;9.194;2022-10-20T11:27:02;21.40;64.60
4245;DHT22;2136;48.502;9.194;2022-10-20T11:29:32;21.40;64.20
4245;DHT22;2136;48.502;9.194;2022-10-20T11:32:07;21.30;63.90
4245;DHT22;2136;48.502;9.194;2022-10-20T11:34:39;21.30;64.30
4245;DHT22;2136;48.502;9.194;2022-10-20T11:37:17;21.40;64.70
4245;DHT22;2136;48.502;9.194;2022-10-20T11:39:52;21.60;66.20
4245;DHT22;2136;48.502;9.194;2022-10-20T11:42:26;21.80;65.90
4245;DHT22;2136;48.502;9.194;2022-10-20T11:44:54;21.90;65.10
4245;DHT22;2136;48.502;9.194;2022-10-20T11:47:26;21.90;64.30
4245;DHT22;2136;48.502;9.194;2022-10-20T11:49:55;22.00;64.40
4245;DHT22;2136;48.502;9.194;2022-10-20T11:52:53;21.90;64.00
4245;DHT22;2136;48.502;9.194;2022-10-20T11:55:40;21.70;64.30
4245;DHT22;2136;48.502;9.194;2022-10-20T11:58:29;21.60;63.70
4245;DHT22;2136;48.502;9.194;2022-10-20T12:01:08;21.40;64.50
4245;DHT22;2136;48.502;9.194;2022-10-20T12:03:54;21.20;65.30
4245;DHT22;2136;48.502;9.194;2022-10-20T12:06:47;21.10;66.30
4245;DHT22;2136;48.502;9.194;2022-10-20T12:12:29;21.00;67.30
4245;DHT22;2136;48.502;9.194;2022-10-20T12:15:00;21.00;67.80
4245;DHT22;2136;48.502;9.194;2022-10-20T12:17:32;21.10;67.90
4245;DHT22;2136;48.502;9.194;2022-10-20T12:23:04;21.10;69.00
4245;DHT22;2136;48.502;9.194;2022-10-20T12:25:39;21.10;68.90
4245;DHT22;2136;48.502;9.194;2022-10-20T12:28:38;21.10;69.20
4245;DHT22;2136;48.502;9.194;2022-10-20T12:31:06;21.10;70.30
4245;DHT22;2136;48.502;9.194;2022-10-20T12:33:36;21.00;70.10
4245;DHT22;2136;48.502;9.194;2022-10-20T12:36:25;21.00;70.50
4245;DHT22;2136;48.502;9.194;2022-10-20T12:39:11;20.90;70.70
4245;DHT22;2136;48.502;9.194;2022-10-20T12:41:42;20.80;70.50
4245;DHT22;2136;48.502;9.194;2022-10-20T12:44:16;20.70;71.10
4245;DHT22;2136;48.502;9.194;2022-10-20T12:46:53;20.70;71.30
4245;DHT22;2136;48.502;9.194;2022-10-20T12:49:26;20.60;71.70
4245;DHT22;2136;48.502;9.194;2022-10-20T12:51:56;20.50;72.20
4245;DHT22;2136;48.502;9.194;2022-10-20T12:54:27;20.40;72.70
4245;DHT22;2136;48.502;9.194;2022-10-20T12:56:58;20.40;73.10
4245;DHT22;2136;48.502;9.194;2022-10-20T12:59:36;20.40;74.10
4245;DHT22;2136;48.502;9.194;2022-10-20T13:05:27;20.40;75.00
4245;DHT22;2136;48.502;9.194;2022-10-20T13:08:18;20.50;75.30
4245;DHT22;2136;48.502;9.194;2022-10-20T13:10:47;20.50;75.60
4245;DHT22;2136;48.502;9.194;2022-10-20T13:13:46;20.50;76.20
4245;DHT22;2136;48.502;9.194;2022-10-20T13:16:19;20.50;76.10
4245;DHT22;2136;48.502;9.194;2022-10-20T13:18:48;20.60;77.10
4245;DHT22;2136;48.502;9.194;2022-10-20T13:21:28;20.60;76.80
4245;DHT22;2136;48.502;9.194;2022-10-20T13:24:10;20.70;76.80
4245;DHT22;2136;48.502;9.194;2022-10-20T13:26:45;20.70;76.60
4245;DHT22;2136;48.502;9.194;2022-10-20T13:29:18;20.70;76.70
4245;DHT22;2136;48.502;9.194;2022-10-20T13:31:54;20.80;76.80
4245;DHT22;2136;48.502;9.194;2022-10-20T13:34:25;20.90;77.10
4245;DHT22;2136;48.502;9.194;2022-10-20T13:37:11;21.00;77.10
4245;DHT22;2136;48.502;9.194;2022-10-20T13:39:47;21.00;76.80
4245;DHT22;2136;48.502;9.194;2022-10-20T13:42:25;21.10;76.90
4245;DHT22;2136;48.502;9.194;2022-10-20T13:45:02;21.20;76.90
4245;DHT22;2136;48.502;9.194;2022-10-20T13:47:47;21.20;76.20
4245;DHT22;2136;48.502;9.194;2022-10-20T13:50:17;21.20;75.30
4245;DHT22;2136;48.502;9.194;2022-10-20T13:52:47;21.20;74.50
4245;DHT22;2136;48.502;9.194;2022-10-20T13:55:18;21.20;74.30
4245;DHT22;2136;48.502;9.194;2022-10-20T13:57:51;21.20;74.40
4245;DHT22;2136;48.502;9.194;2022-10-20T14:00:21;21.10;74.70
4245;DHT22;2136;48.502;9.194;2022-10-20T14:02:55;21.10;75.30
4245;DHT22;2136;48.502;9.194;2022-10-20T14:05:23;21.00;75.10
4245;DHT22;2136;48.502;9.194;2022-10-20T14:07:51;21.00;75.10
4245;DHT22;2136;48.502;9.194;2022-10-20T14:10:24;20.90;75.40
4245;DHT22;2136;48.502;9.194;2022-10-20T14:12:52;20.90;76.60
4245;DHT22;2136;48.502;9.194;2022-10-20T14:15:23;20.90;76.00
4245;DHT22;2136;48.502;9.194;2022-10-20T14:18:01;20.80;76.90
4245;DHT22;2136;48.502;9.194;2022-10-20T14:20:30;20.70;77.90
4245;DHT22;2136;48.502;9.194;2022-10-20T14:22:58;20.70;77.40
4245;DHT22;2136;48.502;9.194;2022-10-20T14:25:26;20.60;77.70
4245;DHT22;2136;48.502;9.194;2022-10-20T14:27:54;20.60;77.80
4245;DHT22;2136;48.502;9.194;2022-10-20T14:30:21;20.50;77.40
4245;DHT22;2136;48.502;9.194;2022-10-20T14:32:49;20.40;76.90
4245;DHT22;2136;48.502;9.194;2022-10-20T14:35:23;20.40;77.90
4245;DHT22;2136;48.502;9.194;2022-10-20T14:37:54;20.40;79.00
4245;DHT22;2136;48.502;9.194;2022-10-20T14:40:25;20.40;79.80
4245;DHT22;2136;48.502;9.194;2022-10-20T14:42:56;20.30;79.10
4245;DHT22;2136;48.502;9.194;2022-10-20T14:45:26;20.30;78.90
4245;DHT22;2136;48.502;9.194;2022-10-20T14:47:54;20.30;79.50
4245;DHT22;2136;48.502;9.194;2022-10-20T14:50:25;20.20;80.40
4245;DHT22;2136;48.502;9.194;2022-10-20T14:52:52;20.20;80.20
4245;DHT22;2136;48.502;9.194;2022-10-20T14:55:40;20.10;80.80
4245;DHT22;2136;48.502;9.194;2022-10-20T14:58:30;20.00;81.40
4245;DHT22;2136;48.502;9.194;2022-10-20T15:01:22;19.90;82.60
4245;DHT22;2136;48.502;9.194;2022-10-20T15:04:15;19.80;83.00
4245;DHT22;2136;48.502;9.194;2022-10-20T15:06:49;19.70;83.80
4245;DHT22;2136;48.502;9.194;2022-10-20T15:09:19;19.70;83.90
4245;DHT22;2136;48.502;9.194;2022-10-20T15:11:49;19.60;84.80
4245;DHT22;2136;48.502;9.194;2022-10-20T15:14:16;19.50;83.50
4245;DHT22;2136;48.502;9.194;2022-10-20T15:16:45;19.50;82.80
4245;DHT22;2136;48.502;9.194;2022-10-20T15:19:28;19.50;82.70
4245;DHT22;2136;48.502;9.194;2022-10-20T15:22:08;19.40;83.30
4245;DHT22;2136;48.502;9.194;2022-10-20T15:24:36;19.40;83.40
4245;DHT22;2136;48.502;9.194;2022-10-20T15:27:03;19.40;83.70
4245;DHT22;2136;48.502;9.194;2022-10-20T15:29:31;19.40;85.30
4245;DHT22;2136;48.502;9.194;2022-10-20T15:31:58;19.30;85.70
4245;DHT22;2136;48.502;9.194;2022-10-20T15:34:25;19.30;85.90
4245;DHT22;2136;48.502;9.194;2022-10-20T15:36:53;19.20;85.90
4245;DHT22;2136;48.502;9.194;2022-10-20T15:39:21;19.20;86.10
4245;DHT22;2136;48.502;9.194;2022-10-20T15:41:48;19.20;87.00
4245;DHT22;2136;48.502;9.194;2022-10-20T15:44:17;19.10;87.60
4245;DHT22;2136;48.502;9.194;2022-10-20T15:46:47;19.10;87.70
4245;DHT22;2136;48.502;9.194;2022-10-20T15:49:14;19.10;87.30
4245;DHT22;2136;48.502;9.194;2022-10-20T15:51:43;19.00;87.30
4245;DHT22;2136;48.502;9.194;2022-10-20T15:54:13;19.00;87.10
4245;DHT22;2136;48.502;9.194;2022-10-20T15:56:41;19.00;87.30
4245;DHT22;2136;48.502;9.194;2022-10-20T15:59:08;19.00;86.70
4245;DHT22;2136;48.502;9.194;2022-10-20T16:01:35;19.00;86.70
4245;DHT22;2136;48.502;9.194;2022-10-20T16:04:15;18.90;86.30
4245;DHT22;2136;48.502;9.194;2022-10-20T16:06:42;18.80;86.50
4245;DHT22;2136;48.502;9.194;2022-10-20T16:09:09;18.80;87.30
4245;DHT22;2136;48.502;9.194;2022-10-20T16:11:36;18.80;87.80
4245;DHT22;2136;48.502;9.194;2022-10-20T16:14:04;18.70;88.90
4245;DHT22;2136;48.502;9.194;2022-10-20T16:16:31;18.70;90.20
4245;DHT22;2136;48.502;9.194;2022-10-20T16:18:58;18.60;90.30
4245;DHT22;2136;48.502;9.194;2022-10-20T16:21:25;18.60;90.30
4245;DHT22;2136;48.502;9.194;2022-10-20T16:23:52;18.60;90.50
4245;DHT22;2136;48.502;9.194;2022-10-20T16:26:19;18.60;90.70
4245;DHT22;2136;48.502;9.194;2022-10-20T16:28:46;18.50;90.20
4245;DHT22;2136;48.502;9.194;2022-10-20T16:31:15;18.50;90.10
4245;DHT22;2136;48.502;9.194;2022-10-20T16:33:42;18.50;89.90
4245;DHT22;2136;48.502;9.194;2022-10-20T16:36:10;18.50;90.10
4245;DHT22;2136;48.502;9.194;2022-10-20T16:38:38;18.40;90.50